createdAt,value
2019-05-01T00:00:36.243Z,100647.24
2019-05-01T00:03:42.440Z,100645.82
2019-05-01T00:06:33.041Z,100645.58
2019-05-01T00:09:19.379Z,100642.19
2019-05-01T00:12:05.855Z,100639.80
2019-05-01T00:14:52.365Z,100642.70
2019-05-01T00:17:38.500Z,100638.47
2019-05-01T00:20:24.600Z,100635.84
2019-05-01T00:23:10.610Z,100630.67
2019-05-01T00:25:56.705Z,100632.71
2019-05-01T00:28:42.895Z,100630.66
2019-05-01T00:31:29.018Z,100631.39
2019-05-01T00:34:15.010Z,100635.91
2019-05-01T00:37:01.397Z,100628.13
2019-05-01T00:39:47.465Z,100631.95
2019-05-01T00:42:33.706Z,100627.87
2019-05-01T00:45:19.930Z,100625.83
2019-05-01T00:48:06.081Z,100615.75
2019-05-01T00:50:52.240Z,100619.17
2019-05-01T00:53:38.272Z,100611.91
2019-05-01T00:56:50.736Z,100607.13
2019-05-01T01:00:05.347Z,100607.00
2019-05-01T01:02:53.065Z,100602.59
2019-05-01T01:05:39.304Z,100599.84
2019-05-01T01:08:25.440Z,100596.23
2019-05-01T01:11:11.715Z,100602.55
2019-05-01T01:13:57.670Z,100599.34
2019-05-01T01:16:43.785Z,100600.50
2019-05-01T01:19:30.045Z,100594.31
2019-05-01T01:22:16.302Z,100599.11
2019-05-01T01:25:02.380Z,100594.09
2019-05-01T01:27:48.674Z,100598.61
2019-05-01T01:30:34.864Z,100595.98
2019-05-01T01:33:20.970Z,100591.81
2019-05-01T01:36:07.165Z,100593.86
2019-05-01T01:38:53.240Z,100584.16
2019-05-01T01:41:39.490Z,100586.72
2019-05-01T01:44:37.185Z,100586.23
2019-05-01T01:47:23.404Z,100586.22
2019-05-01T01:50:09.335Z,100581.77
2019-05-01T01:52:55.555Z,100576.12
2019-05-01T01:55:41.900Z,100575.98
2019-05-01T01:58:28.107Z,100572.59
2019-05-01T02:01:33.910Z,100572.25
2019-05-01T02:04:45.317Z,100577.59
2019-05-01T02:07:31.309Z,100577.02
2019-05-01T02:10:17.874Z,100583.23
2019-05-01T02:13:04.534Z,100576.30
2019-05-01T02:15:50.701Z,100572.39
2019-05-01T02:18:37.132Z,100570.91
2019-05-01T02:21:22.960Z,100571.08
2019-05-01T02:24:09.069Z,100571.08
2019-05-01T02:26:57.375Z,100571.00
2019-05-01T02:29:49.136Z,100565.54
2019-05-01T02:32:35.960Z,100575.44
2019-05-01T02:35:22.229Z,100575.27
2019-05-01T02:38:10.096Z,100577.33
2019-05-01T02:40:57.621Z,100566.02
2019-05-01T02:43:46.481Z,100565.75
2019-05-01T02:46:34.720Z,100559.93
2019-05-01T02:49:37.111Z,100563.89
2019-05-01T02:52:27.196Z,100564.03
2019-05-01T02:55:32.050Z,100557.30
2019-05-01T02:58:18.002Z,100554.66
2019-05-01T03:01:04.198Z,100559.92
2019-05-01T03:03:50.857Z,100556.75
2019-05-01T03:06:37.303Z,100558.41
2019-05-01T03:09:23.487Z,100550.42
2019-05-01T03:12:09.844Z,100548.54
2019-05-01T03:14:58.601Z,100540.85
2019-05-01T03:18:07.341Z,100543.02
2019-05-01T03:21:04.807Z,100541.86
2019-05-01T03:23:57.721Z,100539.70
2019-05-01T03:26:43.845Z,100532.98
2019-05-01T03:29:30.042Z,100528.23
2019-05-01T03:32:19.028Z,100523.72
2019-05-01T03:35:04.622Z,100523.80
2019-05-01T03:37:51.239Z,100519.09
2019-05-01T03:40:37.485Z,100517.55
2019-05-01T03:43:24.540Z,100515.78
2019-05-01T03:46:10.680Z,100516.46
2019-05-01T03:48:57.027Z,100516.36
2019-05-01T03:51:43.553Z,100518.25
2019-05-01T03:54:30.122Z,100525.88
2019-05-01T03:57:16.725Z,100530.94
2019-05-01T04:00:05.790Z,100518.34
2019-05-01T04:03:10.371Z,100534.72
2019-05-01T04:05:56.794Z,100528.38
2019-05-01T04:08:43.217Z,100534.73
2019-05-01T04:11:29.356Z,100543.15
2019-05-01T04:14:15.645Z,100539.52
2019-05-01T04:17:09.771Z,100543.74
2019-05-01T04:19:56.302Z,100540.78
2019-05-01T04:22:42.439Z,100534.81
2019-05-01T04:25:28.731Z,100535.11
2019-05-01T04:28:43.702Z,100535.19
2019-05-01T04:31:58.462Z,100530.00
2019-05-01T04:34:52.032Z,100532.19
2019-05-01T04:37:38.276Z,100534.14
2019-05-01T04:40:24.560Z,100529.58
2019-05-01T04:43:11.079Z,100534.28
2019-05-01T04:45:57.166Z,100533.42
2019-05-01T04:48:43.281Z,100531.70
2019-05-01T04:51:29.807Z,100533.79
2019-05-01T04:54:16.181Z,100541.77
2019-05-01T04:57:02.243Z,100550.65
2019-05-01T04:59:48.465Z,100546.41
2019-05-01T05:02:50.285Z,100552.38
2019-05-01T05:05:37.020Z,100556.35
2019-05-01T05:08:23.409Z,100554.03
2019-05-01T05:11:14.956Z,100557.05
2019-05-01T05:14:15.435Z,100553.41
2019-05-01T05:17:06.950Z,100555.87
2019-05-01T05:19:53.254Z,100563.91
2019-05-01T05:22:39.583Z,100561.97
2019-05-01T05:25:25.616Z,100557.90
2019-05-01T05:28:12.310Z,100557.81
2019-05-01T05:30:59.112Z,100560.14
2019-05-01T05:33:46.148Z,100558.58
2019-05-01T05:36:32.815Z,100558.06
2019-05-01T05:39:31.790Z,100558.41
2019-05-01T05:42:18.145Z,100563.12
2019-05-01T05:45:05.055Z,100559.23
2019-05-01T05:47:51.265Z,100559.92
2019-05-01T05:50:45.785Z,100570.31
2019-05-01T05:53:36.850Z,100566.86
2019-05-01T05:56:27.695Z,100571.81
2019-05-01T05:59:18.200Z,100563.81
2019-05-01T06:02:28.430Z,100564.22
2019-05-01T06:05:23.350Z,100560.81
2019-05-01T06:08:17.354Z,100566.33
2019-05-01T06:11:16.345Z,100569.25
2019-05-01T06:14:21.459Z,100561.73
2019-05-01T06:17:23.683Z,100572.41
2019-05-01T06:20:20.895Z,100565.67
2019-05-01T06:23:26.469Z,100570.14
2019-05-01T06:26:31.926Z,100567.65
2019-05-01T06:29:16.968Z,100571.20
2019-05-01T06:32:03.460Z,100559.52
2019-05-01T06:34:49.549Z,100566.44
2019-05-01T06:38:06.145Z,100566.00
2019-05-01T06:40:58.121Z,100560.19
2019-05-01T06:44:02.345Z,100557.28
2019-05-01T06:46:58.143Z,100557.80
2019-05-01T06:49:51.949Z,100564.55
2019-05-01T06:52:38.720Z,100553.69
2019-05-01T06:55:27.076Z,100558.20
2019-05-01T06:58:14.902Z,100556.00
2019-05-01T07:01:01.545Z,100549.93
2019-05-01T07:04:02.915Z,100544.91
2019-05-01T07:06:36.168Z,100547.23
2019-05-01T07:09:28.051Z,100543.59
2019-05-01T07:12:15.532Z,100544.66
2019-05-01T07:15:02.480Z,100543.70
2019-05-01T07:17:49.016Z,100547.80
2019-05-01T07:20:53.440Z,100549.23
2019-05-01T07:23:39.780Z,100544.07
2019-05-01T07:26:26.020Z,100538.63
2019-05-01T07:29:16.008Z,100532.20
2019-05-01T07:32:06.361Z,100540.49
2019-05-01T07:34:50.572Z,100534.66
2019-05-01T07:37:37.035Z,100532.05
2019-05-01T07:40:29.048Z,100520.77
2019-05-01T07:43:33.539Z,100521.05
2019-05-01T07:46:48.901Z,100520.67
2019-05-01T07:49:54.739Z,100526.83
2019-05-01T07:52:41.505Z,100532.28
2019-05-01T07:55:36.838Z,100516.25
2019-05-01T07:58:23.350Z,100521.36
2019-05-01T08:01:31.820Z,100512.34
2019-05-01T08:04:19.708Z,100513.92
2019-05-01T08:07:05.701Z,100505.95
2019-05-01T08:09:53.228Z,100492.73
2019-05-01T08:12:39.395Z,100496.73
2019-05-01T08:15:27.292Z,100482.26
2019-05-01T08:18:29.115Z,100488.91
2019-05-01T08:21:26.154Z,100497.36
2019-05-01T08:24:13.106Z,100500.11
2019-05-01T08:26:59.425Z,100499.74
2019-05-01T08:30:12.741Z,100521.08
2019-05-01T08:33:17.129Z,100512.30
2019-05-01T08:36:06.830Z,100503.09
2019-05-01T08:38:52.057Z,100513.09
2019-05-01T08:41:38.368Z,100512.28
2019-05-01T08:44:29.515Z,100512.07
2019-05-01T08:47:27.560Z,100514.84
2019-05-01T08:50:19.869Z,100490.01
2019-05-01T08:53:03.921Z,100506.15
2019-05-01T08:55:49.992Z,100521.58
2019-05-01T08:58:36.235Z,100511.84
2019-05-01T09:01:22.700Z,100497.86
2019-05-01T09:04:12.954Z,100503.36
2019-05-01T09:06:57.333Z,100510.24
2019-05-01T09:09:45.342Z,100505.33
2019-05-01T09:12:31.946Z,100487.77
2019-05-01T09:15:18.055Z,100473.64
2019-05-01T09:18:04.401Z,100491.56
2019-05-01T09:20:52.710Z,100477.87
2019-05-01T09:23:39.355Z,100477.56
2019-05-01T09:26:45.239Z,100478.53
2019-05-01T09:29:39.691Z,100471.28
2019-05-01T09:32:25.640Z,100468.66
2019-05-01T09:35:15.801Z,100464.13
2019-05-01T09:37:59.780Z,100468.45
2019-05-01T09:40:45.940Z,100465.73
2019-05-01T09:43:35.693Z,100459.61
2019-05-01T09:46:20.225Z,100447.37
2019-05-01T09:49:06.763Z,100456.31
2019-05-01T09:52:12.655Z,100460.18
2019-05-01T09:55:23.106Z,100468.41
2019-05-01T09:58:06.580Z,100483.03
2019-05-01T10:00:55.455Z,100481.77
2019-05-01T10:03:44.608Z,100482.74
2019-05-01T10:06:29.930Z,100477.60
2019-05-01T10:09:16.743Z,100486.77
2019-05-01T10:12:04.485Z,100481.67
2019-05-01T10:14:50.520Z,100468.63
2019-05-01T10:17:36.550Z,100483.52
2019-05-01T10:20:22.656Z,100478.17
2019-05-01T10:23:13.076Z,100480.69
2019-05-01T10:25:58.905Z,100473.38
2019-05-01T10:29:11.335Z,100474.46
2019-05-01T10:32:11.246Z,100463.84
2019-05-01T10:35:06.075Z,100472.35
2019-05-01T10:37:52.375Z,100465.91
2019-05-01T10:40:38.465Z,100463.72
2019-05-01T10:43:24.586Z,100463.92
2019-05-01T10:46:10.800Z,100456.10
2019-05-01T10:48:57.532Z,100441.06
2019-05-01T10:51:43.692Z,100432.56
2019-05-01T10:54:29.840Z,100435.11
2019-05-01T10:57:16.225Z,100419.25
2019-05-01T11:00:02.410Z,100425.03
2019-05-01T11:02:48.896Z,100417.23
2019-05-01T11:05:35.327Z,100408.39
2019-05-01T11:08:21.510Z,100421.23
2019-05-01T11:11:07.644Z,100405.70
2019-05-01T11:13:53.775Z,100414.19
2019-05-01T11:16:39.985Z,100415.81
2019-05-01T11:19:26.320Z,100419.45
2019-05-01T11:22:12.343Z,100413.85
2019-05-01T11:24:58.421Z,100415.96
2019-05-01T11:27:44.831Z,100423.92
2019-05-01T11:30:30.875Z,100405.86
2019-05-01T11:33:24.109Z,100415.95
2019-05-01T11:36:31.660Z,100412.77
2019-05-01T11:39:26.398Z,100427.28
2019-05-01T11:42:13.806Z,100419.94
2019-05-01T11:44:59.720Z,100413.83
2019-05-01T11:47:45.941Z,100414.47
2019-05-01T11:50:32.111Z,100411.66
2019-05-01T11:53:18.450Z,100405.47
2019-05-01T11:56:04.401Z,100399.50
2019-05-01T11:58:51.411Z,100412.16
2019-05-01T12:01:37.415Z,100403.52
2019-05-01T12:04:23.531Z,100401.20
2019-05-01T12:07:09.584Z,100401.21
2019-05-01T12:09:55.816Z,100387.91
2019-05-01T12:12:41.895Z,100384.55
2019-05-01T12:15:27.980Z,100369.30
2019-05-01T12:18:14.310Z,100380.16
2019-05-01T12:21:00.501Z,100374.05
2019-05-01T12:23:46.510Z,100365.08
2019-05-01T12:26:32.682Z,100366.70
2019-05-01T12:29:18.885Z,100367.34
2019-05-01T12:32:05.125Z,100357.50
2019-05-01T12:34:51.226Z,100355.82
2019-05-01T12:37:41.522Z,100347.33
2019-05-01T12:40:27.663Z,100345.69
2019-05-01T12:43:13.800Z,100351.92
2019-05-01T12:45:59.951Z,100329.41
2019-05-01T12:48:46.108Z,100331.55
2019-05-01T12:51:32.345Z,100327.67
2019-05-01T12:54:32.265Z,100321.44
2019-05-01T12:57:18.473Z,100312.02
2019-05-01T13:00:08.826Z,100309.91
2019-05-01T13:02:53.250Z,100311.90
2019-05-01T13:05:40.710Z,100303.81
2019-05-01T13:08:26.771Z,100299.47
2019-05-01T13:11:12.945Z,100303.57
2019-05-01T13:13:59.255Z,100288.82
2019-05-01T13:16:45.412Z,100290.56
2019-05-01T13:19:31.535Z,100294.77
2019-05-01T13:22:17.880Z,100285.61
2019-05-01T13:25:03.971Z,100294.23
2019-05-01T13:27:56.513Z,100270.36
2019-05-01T13:31:04.760Z,100284.37
2019-05-01T13:33:50.666Z,100275.88
2019-05-01T13:36:37.215Z,100275.20
2019-05-01T13:39:23.267Z,100264.88
2019-05-01T13:42:09.535Z,100274.67
2019-05-01T13:44:55.720Z,100259.80
2019-05-01T13:47:41.790Z,100253.38
2019-05-01T13:50:28.380Z,100243.08
2019-05-01T13:53:14.505Z,100244.13
2019-05-01T13:56:00.810Z,100247.14
2019-05-01T13:58:47.015Z,100237.39
2019-05-01T14:01:33.160Z,100238.89
2019-05-01T14:04:21.650Z,100232.16
2019-05-01T14:07:16.315Z,100238.05
2019-05-01T14:09:56.190Z,100226.80
2019-05-01T14:12:43.460Z,100221.19
2019-05-01T14:15:29.660Z,100217.06
2019-05-01T14:18:15.990Z,100212.02
2019-05-01T14:21:12.275Z,100204.44
2019-05-01T14:24:20.710Z,100206.14
2019-05-01T14:27:07.802Z,100201.52
2019-05-01T14:29:54.429Z,100184.59
2019-05-01T14:32:40.560Z,100184.20
2019-05-01T14:35:26.785Z,100193.22
2019-05-01T14:38:13.035Z,100179.19
2019-05-01T14:41:01.779Z,100178.71
2019-05-01T14:43:48.775Z,100174.77
2019-05-01T14:46:34.922Z,100161.02
2019-05-01T14:49:22.271Z,100167.81
2019-05-01T14:52:08.812Z,100172.36
2019-05-01T14:54:55.206Z,100179.94
2019-05-01T14:57:41.285Z,100190.28
2019-05-01T15:00:27.639Z,100176.84
2019-05-01T15:03:14.930Z,100154.10
2019-05-01T15:06:01.112Z,100160.20
2019-05-01T15:08:47.473Z,100165.44
2019-05-01T15:11:33.653Z,100171.48
2019-05-01T15:14:51.336Z,100176.22
2019-05-01T15:17:45.655Z,100176.80
2019-05-01T15:20:32.408Z,100171.58
2019-05-01T15:23:19.765Z,100171.77
2019-05-01T15:26:06.091Z,100162.98
2019-05-01T15:28:52.320Z,100158.05
2019-05-01T15:31:38.346Z,100164.09
2019-05-01T15:34:24.989Z,100169.11
2019-05-01T15:37:12.095Z,100167.86
2019-05-01T15:40:11.086Z,100155.30
2019-05-01T15:43:02.948Z,100165.33
2019-05-01T15:45:49.295Z,100141.39
2019-05-01T15:48:35.470Z,100151.11
2019-05-01T15:51:21.595Z,100156.85
2019-05-01T15:54:07.874Z,100145.55
2019-05-01T15:56:53.919Z,100145.91
2019-05-01T15:59:40.219Z,100142.97
2019-05-01T16:02:26.485Z,100131.67
2019-05-01T16:05:12.540Z,100129.97
2019-05-01T16:08:09.418Z,100131.28
2019-05-01T16:11:14.100Z,100129.00
2019-05-01T16:14:00.700Z,100118.93
2019-05-01T16:16:48.608Z,100131.19
2019-05-01T16:19:34.900Z,100132.16
2019-05-01T16:22:21.066Z,100128.31
2019-05-01T16:25:07.628Z,100126.12
2019-05-01T16:27:56.414Z,100114.91
2019-05-01T16:30:43.805Z,100110.28
2019-05-01T16:33:30.290Z,100112.61
2019-05-01T16:36:16.931Z,100116.25
2019-05-01T16:39:23.410Z,100108.63
2019-05-01T16:42:10.390Z,100096.78
2019-05-01T16:44:56.754Z,100097.14
2019-05-01T16:47:42.735Z,100095.30
2019-05-01T16:50:28.800Z,100094.69
2019-05-01T16:53:15.016Z,100086.66
2019-05-01T16:56:01.154Z,100076.02
2019-05-01T16:58:47.156Z,100077.50
2019-05-01T17:01:51.947Z,100076.33
2019-05-01T17:05:00.260Z,100072.39
2019-05-01T17:08:04.532Z,100073.17
2019-05-01T17:10:50.900Z,100072.59
2019-05-01T17:13:37.001Z,100077.74
2019-05-01T17:16:23.290Z,100079.55
2019-05-01T17:19:09.445Z,100065.34
2019-05-01T17:21:55.515Z,100065.80
2019-05-01T17:24:41.540Z,100064.67
2019-05-01T17:27:27.720Z,100064.42
2019-05-01T17:30:17.870Z,100069.23
2019-05-01T17:33:04.553Z,100065.25
2019-05-01T17:35:50.990Z,100073.56
2019-05-01T17:38:48.945Z,100060.31
2019-05-01T17:41:27.125Z,100067.64
2019-05-01T17:44:14.901Z,100074.98
2019-05-01T17:47:01.380Z,100074.84
2019-05-01T17:49:47.495Z,100076.51
2019-05-01T17:52:34.365Z,100074.53
2019-05-01T17:55:21.030Z,100078.34
2019-05-01T17:58:07.264Z,100076.52
2019-05-01T18:01:15.900Z,100078.70
2019-05-01T18:04:14.029Z,100076.84
2019-05-01T18:07:00.420Z,100073.69
2019-05-01T18:09:47.280Z,100066.41
2019-05-01T18:12:33.795Z,100081.63
2019-05-01T18:15:20.100Z,100076.33
2019-05-01T18:18:10.642Z,100078.67
2019-05-01T18:20:56.036Z,100077.16
2019-05-01T18:24:01.025Z,100085.26
2019-05-01T18:27:07.125Z,100084.23
2019-05-01T18:29:59.328Z,100082.55
2019-05-01T18:32:51.965Z,100078.55
2019-05-01T18:35:36.800Z,100082.58
2019-05-01T18:38:38.381Z,100088.80
2019-05-01T18:41:47.992Z,100084.12
2019-05-01T18:44:34.425Z,100087.41
2019-05-01T18:47:22.156Z,100088.49
2019-05-01T18:50:09.050Z,100083.80
2019-05-01T18:52:55.331Z,100082.42
2019-05-01T18:55:41.705Z,100080.42
2019-05-01T18:58:28.477Z,100082.38
2019-05-01T19:01:15.665Z,100074.58
2019-05-01T19:04:04.435Z,100084.31
2019-05-01T19:06:52.666Z,100079.11
2019-05-01T19:09:39.955Z,100085.66
2019-05-01T19:12:26.426Z,100090.73
2019-05-01T19:15:13.255Z,100083.75
2019-05-01T19:18:00.746Z,100088.42
2019-05-01T19:20:58.947Z,100091.17
2019-05-01T19:23:37.925Z,100088.02
2019-05-01T19:26:27.370Z,100093.72
2019-05-01T19:29:17.427Z,100085.38
2019-05-01T19:32:04.950Z,100089.02
2019-05-01T19:34:54.039Z,100084.61
2019-05-01T19:37:41.805Z,100087.55
2019-05-01T19:40:30.665Z,100082.19
2019-05-01T19:43:20.560Z,100081.50
2019-05-01T19:46:13.050Z,100082.59
2019-05-01T19:49:00.350Z,100080.36
2019-05-01T19:51:55.442Z,100086.23
2019-05-01T19:54:41.210Z,100081.88
2019-05-01T19:57:29.585Z,100087.06
2019-05-01T20:00:27.645Z,100084.16
2019-05-01T20:03:14.714Z,100082.94
2019-05-01T20:06:05.495Z,100082.20
2019-05-01T20:08:50.595Z,100083.42
2019-05-01T20:11:37.870Z,100081.30
2019-05-01T20:14:24.545Z,100085.14
2019-05-01T20:17:11.881Z,100088.65
2019-05-01T20:19:58.645Z,100081.94
2019-05-01T20:22:48.241Z,100084.45
2019-05-01T20:25:33.951Z,100084.17
2019-05-01T20:28:22.447Z,100080.42
2019-05-01T20:31:09.546Z,100080.50
2019-05-01T20:33:56.025Z,100077.81
2019-05-01T20:36:42.635Z,100074.20
2019-05-01T20:39:29.861Z,100077.25
2019-05-01T20:42:16.074Z,100069.91
2019-05-01T20:45:05.347Z,100074.80
2019-05-01T20:47:54.235Z,100074.95
2019-05-01T20:50:39.216Z,100076.89
2019-05-01T20:53:25.155Z,100076.83
2019-05-01T20:56:39.850Z,100080.84
2019-05-01T20:59:25.910Z,100079.23
2019-05-01T21:02:12.000Z,100073.85
2019-05-01T21:05:20.400Z,100071.92
2019-05-01T21:08:15.480Z,100072.45
2019-05-01T21:11:14.827Z,100070.92
2019-05-01T21:14:17.036Z,100070.58
2019-05-01T21:16:49.075Z,100069.76
2019-05-01T21:19:37.663Z,100065.38
2019-05-01T21:22:23.596Z,100062.66
2019-05-01T21:25:09.806Z,100066.77
2019-05-01T21:27:55.970Z,100066.61
2019-05-01T21:30:43.940Z,100066.78
2019-05-01T21:33:30.210Z,100062.89
2019-05-01T21:36:16.590Z,100063.29
2019-05-01T21:39:04.275Z,100065.42
2019-05-01T21:41:50.506Z,100062.50
2019-05-01T21:44:36.818Z,100060.09
2019-05-01T21:47:23.653Z,100062.14
2019-05-01T21:50:10.182Z,100056.54
2019-05-01T21:52:58.071Z,100050.78
2019-05-01T21:55:44.240Z,100050.67
2019-05-01T21:58:33.293Z,100048.66
2019-05-01T22:01:18.120Z,100044.88
2019-05-01T22:04:05.100Z,100049.20
2019-05-01T22:06:53.525Z,100044.06
2019-05-01T22:09:40.075Z,100048.81
2019-05-01T22:12:26.479Z,100043.26
2019-05-01T22:15:24.034Z,100038.73
2019-05-01T22:18:18.870Z,100038.65
2019-05-01T22:21:23.045Z,100036.56
2019-05-01T22:24:17.804Z,100039.67
2019-05-01T22:27:10.870Z,100040.31
2019-05-01T22:30:10.767Z,100046.02
2019-05-01T22:32:55.201Z,100037.97
2019-05-01T22:35:45.820Z,100045.99
2019-05-01T22:38:31.824Z,100040.88
2019-05-01T22:41:17.766Z,100043.66
2019-05-01T22:44:04.054Z,100042.68
2019-05-01T22:46:50.179Z,100043.88
2019-05-01T22:49:36.210Z,100032.38
2019-05-01T22:52:22.404Z,100034.18
2019-05-01T22:55:08.730Z,100032.87
2019-05-01T22:57:54.698Z,100033.87
2019-05-01T23:00:55.199Z,100030.64
2019-05-01T23:03:47.875Z,100034.86
2019-05-01T23:06:37.095Z,100026.55
2019-05-01T23:09:23.412Z,100022.02
2019-05-01T23:12:11.040Z,100020.51
2019-05-01T23:14:57.279Z,100020.78
2019-05-01T23:17:45.520Z,100023.05
2019-05-01T23:20:34.691Z,100022.14
2019-05-01T23:23:19.360Z,100022.16
2019-05-01T23:26:05.364Z,100018.33
2019-05-01T23:28:51.595Z,100006.19
2019-05-01T23:31:37.831Z,100012.38
2019-05-01T23:34:26.035Z,100005.73
2019-05-01T23:37:12.088Z,100004.30
2019-05-01T23:39:58.315Z,100002.42
2019-05-01T23:42:52.390Z,99993.73
2019-05-01T23:45:32.960Z,99995.50
2019-05-01T23:48:19.192Z,99985.70
2019-05-01T23:51:05.360Z,99982.83
2019-05-01T23:53:51.364Z,99982.48
2019-05-01T23:56:37.693Z,99979.14
2019-05-01T23:59:23.738Z,99970.94
